Terminal Aerodrome Forecast
Issued by NWS Springfield, MO

Home | Current Version | Previous Version | Text Only | Print | Product List | Glossary On
Versions: 1 2 3 4 5 6 7 8 9 10 11 12 13
000
FTUS43 KSGF 191000 AAC
TAFSGF
TAF AMD
KSGF 191040Z 1911/2006 00000KT 4SM BR SKC
      TEMPO 1911/1913 2SM BR
     FM191430 VRB04KT P6SM SCT020 SCT250=

USA.gov is the U.S. government's official web portal to all federal, state and local government web resources and services.